Terminal Aerodrome Forecast
Issued by NWS

Home | Current Version | Previous Version | Graphics & Text | Print | Product List | Glossary On
Versions: 1 2 3 4 5 6 7 8 9 10 11 12 13 14 15 16 17 18 19
000
FTUS43 KABR 170521
TAFATY
TAF
KATY 170521Z 1706/1806 17017G25KT P6SM BKN130
     FM171000 18010KT P6SM BKN200
     FM171200 20006KT P6SM OVC140
     FM171500 00000KT 5SM BR OVC050
     FM171700 01007KT P6SM OVC070=

USA.gov is the U.S. government's official web portal to all federal, state and local government web resources and services.